EmailTwitter


Observations de surface / Québec / CYHU (71371)

Régions: Québec | Canada | États-Unis | Europe | France | UK | Ailleurs
Station
Affichage
Infos & localisation pour CYHU (71371) | Aide pour décoder les METARs

Observations prises le 2018-09-21 à 03H00 UTC à MONTREAL/ST HUBE, QB (CYHU)

Etat du ciel: ciel variable.

Température: 12.0 Celsius

Point de rosée: 10.0 Celsius

Humidité relative: 88%

Vents: Est-nord-est à 4 km/h ou 2 noeuds.

Pression au niveau moyen de la mer: 102.41 kilopascals.

Calage altimétrique: 102.40 kilopascals ou 30.24 pouces de mercure.

Visibilité horizontale: 9.00 milles terrestres ou 14.40 kilomètres.

Observation METAR:

CYHU 210300Z AUTO 07002KT 9SM SCT170 12/10 A3024 RMK SLP241=